sensor_id;sensor_type;location;lat;lon;timestamp;temperature;humidity
2158;DHT22;41972;48.774;9.282;2023-09-19T19:17:47;15.30;99.90
2158;DHT22;41972;48.774;9.282;2023-09-19T19:20:12;15.20;99.90
2158;DHT22;41972;48.774;9.282;2023-09-19T19:22:41;15.20;99.90
2158;DHT22;41972;48.774;9.282;2023-09-19T19:25:08;15.10;99.90
2158;DHT22;41972;48.774;9.282;2023-09-19T19:27:35;15.00;99.90
2158;DHT22;41972;48.774;9.282;2023-09-19T19:30:00;15.00;99.90
2158;DHT22;41972;48.774;9.282;2023-09-19T19:32:26;14.90;99.90
2158;DHT22;41972;48.774;9.282;2023-09-19T19:34:53;14.80;99.90
2158;DHT22;41972;48.774;9.282;2023-09-19T19:37:20;14.70;99.90
2158;DHT22;41972;48.774;9.282;2023-09-19T19:39:45;14.70;99.90
2158;DHT22;41972;48.774;9.282;2023-09-19T19:42:11;14.60;99.90
2158;DHT22;41972;48.774;9.282;2023-09-19T19:44:38;14.50;99.90
2158;DHT22;41972;48.774;9.282;2023-09-19T19:47:04;14.50;99.90
2158;DHT22;41972;48.774;9.282;2023-09-19T19:49:29;14.60;99.90
2158;DHT22;41972;48.774;9.282;2023-09-19T19:51:55;14.40;99.90
2158;DHT22;41972;48.774;9.282;2023-09-19T19:54:21;14.40;99.90
2158;DHT22;41972;48.774;9.282;2023-09-19T19:56:47;14.30;99.90
2158;DHT22;41972;48.774;9.282;2023-09-19T19:59:14;14.30;99.90
2158;DHT22;41972;48.774;9.282;2023-09-19T20:01:40;14.20;99.90
2158;DHT22;41972;48.774;9.282;2023-09-19T20:04:06;14.10;99.90
2158;DHT22;41972;48.774;9.282;2023-09-19T20:06:32;14.10;99.90
2158;DHT22;41972;48.774;9.282;2023-09-19T20:08:58;14.40;99.90
2158;DHT22;41972;48.774;9.282;2023-09-19T20:11:23;14.50;99.90
2158;DHT22;41972;48.774;9.282;2023-09-19T20:13:59;14.40;99.90
2158;DHT22;41972;48.774;9.282;2023-09-19T20:16:27;14.30;99.90
2158;DHT22;41972;48.774;9.282;2023-09-19T20:19:01;14.30;99.90
2158;DHT22;41972;48.774;9.282;2023-09-19T20:21:27;14.30;99.90
2158;DHT22;41972;48.774;9.282;2023-09-19T20:23:54;14.20;99.90
2158;DHT22;41972;48.774;9.282;2023-09-19T20:26:19;14.30;99.90
2158;DHT22;41972;48.774;9.282;2023-09-19T20:28:45;14.30;99.90
2158;DHT22;41972;48.774;9.282;2023-09-19T20:31:12;14.20;99.90
2158;DHT22;41972;48.774;9.282;2023-09-19T20:33:40;14.10;99.90
2158;DHT22;41972;48.774;9.282;2023-09-19T20:36:07;14.10;99.90
2158;DHT22;41972;48.774;9.282;2023-09-19T20:38:34;14.10;99.90
2158;DHT22;41972;48.774;9.282;2023-09-19T20:41:00;14.00;99.90
2158;DHT22;41972;48.774;9.282;2023-09-19T20:43:30;13.90;99.90
2158;DHT22;41972;48.774;9.282;2023-09-19T20:45:56;13.90;99.90
2158;DHT22;41972;48.774;9.282;2023-09-19T20:48:21;13.90;99.90
2158;DHT22;41972;48.774;9.282;2023-09-19T20:50:47;13.90;99.90
2158;DHT22;41972;48.774;9.282;2023-09-19T20:53:13;13.90;99.90
2158;DHT22;41972;48.774;9.282;2023-09-19T20:55:38;14.10;99.90
2158;DHT22;41972;48.774;9.282;2023-09-19T20:58:05;14.20;99.90
2158;DHT22;41972;48.774;9.282;2023-09-19T21:00:31;14.10;99.90
2158;DHT22;41972;48.774;9.282;2023-09-19T21:02:59;14.10;99.90
2158;DHT22;41972;48.774;9.282;2023-09-19T21:05:24;13.80;99.90
2158;DHT22;41972;48.774;9.282;2023-09-19T21:07:51;13.80;99.90
2158;DHT22;41972;48.774;9.282;2023-09-19T21:10:17;13.80;99.90
2158;DHT22;41972;48.774;9.282;2023-09-19T21:12:42;13.70;99.90
2158;DHT22;41972;48.774;9.282;2023-09-19T21:15:08;13.70;99.90
2158;DHT22;41972;48.774;9.282;2023-09-19T21:17:34;13.70;99.90
2158;DHT22;41972;48.774;9.282;2023-09-19T21:20:11;13.60;99.90
2158;DHT22;41972;48.774;9.282;2023-09-19T21:22:41;13.80;99.90
2158;DHT22;41972;48.774;9.282;2023-09-19T21:25:07;13.80;99.90
2158;DHT22;41972;48.774;9.282;2023-09-19T21:27:37;13.70;99.90
2158;DHT22;41972;48.774;9.282;2023-09-19T21:30:03;13.70;99.90
2158;DHT22;41972;48.774;9.282;2023-09-19T21:32:32;13.80;99.90
2158;DHT22;41972;48.774;9.282;2023-09-19T21:34:58;13.70;99.90
2158;DHT22;41972;48.774;9.282;2023-09-19T21:37:26;13.60;99.90
2158;DHT22;41972;48.774;9.282;2023-09-19T21:39:51;13.70;99.90
2158;DHT22;41972;48.774;9.282;2023-09-19T21:42:17;13.70;99.90
2158;DHT22;41972;48.774;9.282;2023-09-19T21:44:43;13.60;99.90
2158;DHT22;41972;48.774;9.282;2023-09-19T21:47:08;13.50;99.90
2158;DHT22;41972;48.774;9.282;2023-09-19T21:49:35;13.40;99.90
2158;DHT22;41972;48.774;9.282;2023-09-19T21:52:00;13.60;99.90
2158;DHT22;41972;48.774;9.282;2023-09-19T21:54:26;13.70;99.90
2158;DHT22;41972;48.774;9.282;2023-09-19T21:56:52;13.50;99.90
2158;DHT22;41972;48.774;9.282;2023-09-19T21:59:18;13.40;99.90
2158;DHT22;41972;48.774;9.282;2023-09-19T22:01:44;13.20;99.90
2158;DHT22;41972;48.774;9.282;2023-09-19T22:04:10;13.30;99.90
2158;DHT22;41972;48.774;9.282;2023-09-19T22:06:36;13.30;99.90
2158;DHT22;41972;48.774;9.282;2023-09-19T22:09:01;13.30;99.90
2158;DHT22;41972;48.774;9.282;2023-09-19T22:11:28;13.30;99.90
2158;DHT22;41972;48.774;9.282;2023-09-19T22:13:54;13.50;99.90
2158;DHT22;41972;48.774;9.282;2023-09-19T22:16:19;13.70;99.90
2158;DHT22;41972;48.774;9.282;2023-09-19T22:18:46;13.60;99.90
2158;DHT22;41972;48.774;9.282;2023-09-19T22:21:12;13.40;99.90
2158;DHT22;41972;48.774;9.282;2023-09-19T22:23:41;13.30;99.90
2158;DHT22;41972;48.774;9.282;2023-09-19T22:26:08;13.40;99.90
2158;DHT22;41972;48.774;9.282;2023-09-19T22:28:35;13.50;99.90
2158;DHT22;41972;48.774;9.282;2023-09-19T22:31:22;13.60;99.90
2158;DHT22;41972;48.774;9.282;2023-09-19T22:33:52;13.90;99.90
2158;DHT22;41972;48.774;9.282;2023-09-19T22:36:23;13.90;99.90
2158;DHT22;41972;48.774;9.282;2023-09-19T22:38:56;13.80;99.90
2158;DHT22;41972;48.774;9.282;2023-09-19T22:41:26;13.60;99.90
2158;DHT22;41972;48.774;9.282;2023-09-19T22:43:52;13.60;99.90
2158;DHT22;41972;48.774;9.282;2023-09-19T22:46:21;13.60;99.90
2158;DHT22;41972;48.774;9.282;2023-09-19T22:48:47;13.60;99.90
2158;DHT22;41972;48.774;9.282;2023-09-19T22:51:14;13.50;99.90
2158;DHT22;41972;48.774;9.282;2023-09-19T22:53:51;13.30;99.90
2158;DHT22;41972;48.774;9.282;2023-09-19T22:56:23;13.60;99.90
2158;DHT22;41972;48.774;9.282;2023-09-19T22:58:48;13.50;99.90
2158;DHT22;41972;48.774;9.282;2023-09-19T23:01:17;13.50;99.90
2158;DHT22;41972;48.774;9.282;2023-09-19T23:03:52;13.40;99.90
2158;DHT22;41972;48.774;9.282;2023-09-19T23:06:32;13.40;99.90
2158;DHT22;41972;48.774;9.282;2023-09-19T23:09:00;13.40;99.90
2158;DHT22;41972;48.774;9.282;2023-09-19T23:11:26;13.30;99.90
2158;DHT22;41972;48.774;9.282;2023-09-19T23:13:53;13.20;99.90
2158;DHT22;41972;48.774;9.282;2023-09-19T23:16:20;13.10;99.90
2158;DHT22;41972;48.774;9.282;2023-09-19T23:18:54;12.90;99.90
2158;DHT22;41972;48.774;9.282;2023-09-19T23:21:21;13.00;99.90
2158;DHT22;41972;48.774;9.282;2023-09-19T23:23:48;13.00;99.90
2158;DHT22;41972;48.774;9.282;2023-09-19T23:26:14;13.10;99.90
2158;DHT22;41972;48.774;9.282;2023-09-19T23:28:40;13.10;99.90
2158;DHT22;41972;48.774;9.282;2023-09-19T23:31:09;13.00;99.90
2158;DHT22;41972;48.774;9.282;2023-09-19T23:33:35;13.10;99.90
2158;DHT22;41972;48.774;9.282;2023-09-19T23:36:02;13.10;99.90
2158;DHT22;41972;48.774;9.282;2023-09-19T23:38:29;13.10;99.90
2158;DHT22;41972;48.774;9.282;2023-09-19T23:40:56;13.20;99.90
2158;DHT22;41972;48.774;9.282;2023-09-19T23:43:21;13.30;99.90
2158;DHT22;41972;48.774;9.282;2023-09-19T23:45:47;13.30;99.90
2158;DHT22;41972;48.774;9.282;2023-09-19T23:48:13;13.30;99.90
2158;DHT22;41972;48.774;9.282;2023-09-19T23:50:39;13.20;99.90
2158;DHT22;41972;48.774;9.282;2023-09-19T23:53:09;13.20;99.90
2158;DHT22;41972;48.774;9.282;2023-09-19T23:55:38;13.20;99.90
2158;DHT22;41972;48.774;9.282;2023-09-19T23:58:04;13.10;99.90
